Airfield :
LOGIN :

Register | Disclaimer

   EN    FR    IT 

 










Legend :    VFR   Marginal VFR   IFR   Intensive IFR   Very Intensive IFR
Visi :
Ceiling :
>= 8 km
>= 3000ft
5 to 8 km
1000 to 3000 ft
1500m to 5 km
500 to 1000 ft
800 to 1500m
200 to 500 ft
< 800m
< 200 ft
Symbols :   Thunderstorms  Fog  Heavy snow  Heavy precipitations  Wind > 20 kt
SIGMETs :     Misc.  Thunderstorms  Icing  Turbulence  Mountain Waves  Volcanic Ashes







- Airport Elevation : 1367 ft
- IATA code : FDH


EDNY - Friedrichshafen

CURRENT METAR :
  • 161220Z 28003KT 230V320 CAVOK 02/M01 Q1015

EXPIRED METARs :
  • 161150Z 26003KT 230V310 6000 FEW004 00/M01 Q1015
  • 161120Z VRB02KT 6000 SCT002 M00/M01 Q1016
  • 161050Z 26003KT 220V280 4500 BR BKN003 M01/M01 Q1016
  • 161020Z 26003KT 4200 BR BKN003 M01/M01 Q1017
  • 160950Z 24004KT 0900 R24/P1200N FZFG BKN002 M01/M02 Q1017

TAF TAF EDNY
Valid from the 16 at 12:00 until the 17 at 12:00 UTC


161100Z 1612/1712 24005KT CAVOK
TEMPO 1612/1614 2000 BR BKN003
BECMG 1622/1624 24010KT
BECMG 1710/1712 24015G25KT
No reported NOTAMs for that airfield.



MET'MAP, your aeronautical weather chart ! - Copyright ORBIFLY December 2007 - Disclaimer

ORBIFLY MET'MAP TEAM :

Programming & Development : Alexandra Zaïnal
Concept & Development : Baudouin d'Aumeries
Co-Development & Prog : Marc-Olivier Méhu
Technical & hardware support : Manuel Goepfert

Contact : metmap@orbifly.com




SOURCES & CREDITS :

   NOAA